Time;durP1;ratioP1;P1;durP2;ratioP2;P2;SDS_P1;SDS_P2;PMS_P1;PMS_P2;Temp;Humidity;BMP_temperature;BMP_pressure;BME280_temperature;BME280_humidity;BME280_pressure;Samples;Min_cycle;Max_cycle;Signal;HPM_P1;HPM_P2
2021/06/08 00:00:07;;;;;;;45.40;40.80;;;13.00;99.90;;;;;;5035884;28;20479;-76
2021/06/08 00:02:34;;;;;;;46.13;41.20;;;12.90;99.90;;;;;;5039699;28;20490;-75
2021/06/08 00:05:00;;;;;;;45.93;41.17;;;12.90;99.90;;;;;;5031941;28;20459;-75
2021/06/08 00:07:27;;;;;;;45.23;40.77;;;12.90;99.90;;;;;;5031103;28;20493;-77
2021/06/08 00:09:54;;;;;;;45.30;40.40;;;12.90;99.90;;;;;;5037637;28;20476;-75
2021/06/08 00:12:21;;;;;;;45.63;40.90;;;13.00;99.90;;;;;;5037017;28;20463;-77
2021/06/08 00:14:48;;;;;;;44.70;40.30;;;12.90;99.90;;;;;;5034511;28;20551;-75
2021/06/08 00:17:15;;;;;;;54.13;42.57;;;12.80;99.90;;;;;;5033750;28;20545;-75
2021/06/08 00:19:41;;;;;;;47.00;42.10;;;12.80;99.90;;;;;;5030975;28;20461;-75
2021/06/08 00:22:07;;;;;;;48.70;43.50;;;12.90;99.90;;;;;;5033952;28;20468;-75
2021/06/08 00:24:33;;;;;;;48.53;43.37;;;12.90;99.90;;;;;;5032810;28;20475;-75
2021/06/08 00:27:00;;;;;;;49.67;42.20;;;12.90;99.90;;;;;;5034625;28;20463;-77
2021/06/08 00:29:28;;;;;;;49.53;42.30;;;12.90;99.90;;;;;;5037979;28;20845;-75
2021/06/08 00:31:54;;;;;;;52.23;44.00;;;13.00;99.90;;;;;;5037929;28;20882;-75
2021/06/08 00:34:21;;;;;;;44.70;40.10;;;13.00;99.90;;;;;;5032762;28;20467;-77
2021/06/08 00:36:47;;;;;;;44.23;39.17;;;13.00;99.90;;;;;;5031042;28;20461;-81
2021/06/08 00:39:13;;;;;;;44.87;40.10;;;12.90;99.90;;;;;;5037427;28;20471;-75
2021/06/08 00:41:43;;;;;;;46.53;40.60;;;12.80;99.90;;;;;;5034638;28;20468;-75
2021/06/08 00:44:12;;;;;;;54.93;45.17;;;12.70;99.90;;;;;;5036896;28;20488;-75
2021/06/08 00:46:40;;;;;;;54.67;41.63;;;12.70;99.90;;;;;;5046500;28;20857;-78
2021/06/08 00:49:06;;;;;;;46.63;41.90;;;12.70;99.90;;;;;;5036557;28;20492;-76
2021/06/08 00:51:33;;;;;;;44.40;39.57;;;12.70;99.90;;;;;;5035269;28;20516;-75
2021/06/08 00:54:06;;;;;;;49.00;43.70;;;12.70;99.90;;;;;;5035184;28;20501;-78
2021/06/08 00:56:34;;;;;;;54.40;47.40;;;12.60;99.90;;;;;;5037183;28;20555;-75
2021/06/08 00:59:00;;;;;;;59.97;48.07;;;12.60;99.90;;;;;;5033174;28;20481;-77
2021/06/08 01:01:27;;;;;;;66.00;48.77;;;12.60;99.90;;;;;;5039247;28;20542;-75
2021/06/08 01:03:55;;;;;;;63.70;48.00;;;12.70;99.90;;;;;;5041458;28;20472;-74
2021/06/08 01:06:21;;;;;;;56.57;49.63;;;12.70;99.90;;;;;;5041305;28;20489;-75
2021/06/08 01:08:48;;;;;;;58.90;48.90;;;12.60;99.90;;;;;;5034032;28;20488;-75
2021/06/08 01:11:14;;;;;;;56.83;48.70;;;12.70;99.90;;;;;;5034208;28;20460;-80
2021/06/08 01:13:42;;;;;;;64.20;49.40;;;12.70;99.90;;;;;;5040262;28;20650;-75
2021/06/08 01:16:09;;;;;;;67.90;51.17;;;12.70;99.90;;;;;;5040223;28;20476;-75
2021/06/08 01:18:36;;;;;;;66.03;52.23;;;12.70;99.90;;;;;;5036258;28;20832;-75
2021/06/08 01:21:05;;;;;;;65.80;50.07;;;12.70;99.90;;;;;;5039286;28;20466;-78
2021/06/08 01:23:32;;;;;;;66.10;52.60;;;12.60;99.90;;;;;;5035874;28;20456;-76
2021/06/08 01:25:59;;;;;;;66.93;50.93;;;12.60;99.90;;;;;;5035415;28;20784;-75
2021/06/08 01:28:26;;;;;;;66.57;51.17;;;12.60;99.90;;;;;;5039068;28;20492;-76
2021/06/08 01:30:54;;;;;;;76.37;51.67;;;12.60;99.90;;;;;;5041912;28;20471;-75
2021/06/08 01:33:23;;;;;;;68.63;51.73;;;12.60;99.90;;;;;;5038717;28;20459;-78
2021/06/08 01:35:52;;;;;;;69.07;51.80;;;12.60;99.90;;;;;;5036367;28;20452;-74
2021/06/08 01:38:21;;;;;;;67.10;53.43;;;12.60;99.90;;;;;;5037628;28;20481;-81
2021/06/08 01:40:49;;;;;;;61.07;49.17;;;12.60;99.90;;;;;;5037923;28;20464;-75
2021/06/08 01:43:16;;;;;;;53.63;46.83;;;12.50;99.90;;;;;;5040963;28;20913;-77
2021/06/08 01:45:43;;;;;;;50.53;43.20;;;12.40;99.90;;;;;;5037056;28;20463;-77
2021/06/08 01:48:09;;;;;;;49.93;43.73;;;12.30;99.90;;;;;;5035966;28;20499;-75
2021/06/08 01:50:37;;;;;;;47.37;42.20;;;12.20;99.90;;;;;;5040322;28;20854;-78
2021/06/08 01:53:13;;;;;;;49.47;42.67;;;12.20;99.90;;;;;;5033359;28;20979;-75
2021/06/08 01:55:45;;;;;;;66.50;49.67;;;12.20;99.90;;;;;;5038699;28;20463;-75
2021/06/08 01:58:15;;;;;;;49.40;44.03;;;12.20;99.90;;;;;;5034579;28;21046;-75
2021/06/08 02:00:48;;;;;;;58.03;45.43;;;12.20;99.90;;;;;;5039346;28;20499;-74
2021/06/08 02:03:20;;;;;;;52.53;44.30;;;12.10;99.90;;;;;;5037638;28;20464;-76
2021/06/08 02:05:57;;;;;;;62.50;49.40;;;12.10;99.90;;;;;;5038348;28;20829;-74
2021/06/08 02:08:36;;;;;;;51.13;45.37;;;12.10;99.90;;;;;;5033554;28;20492;-77
2021/06/08 02:11:07;;;;;;;58.73;48.00;;;12.10;99.90;;;;;;5037472;28;20465;-77
2021/06/08 02:13:41;;;;;;;59.60;49.30;;;12.00;99.90;;;;;;5035094;28;20463;-75
2021/06/08 02:16:15;;;;;;;65.20;49.20;;;11.90;99.90;;;;;;5048716;28;20458;-77
2021/06/08 02:18:44;;;;;;;58.67;49.00;;;11.90;99.90;;;;;;5038783;28;20464;-75
2021/06/08 02:21:12;;;;;;;57.90;46.77;;;11.90;99.90;;;;;;5033306;28;20470;-75
2021/06/08 02:23:39;;;;;;;57.43;47.83;;;11.90;99.90;;;;;;5033750;28;20524;-75
2021/06/08 02:26:07;;;;;;;58.20;47.10;;;11.90;99.90;;;;;;5040358;28;20471;-78
2021/06/08 02:28:41;;;;;;;63.50;48.20;;;11.90;99.90;;;;;;5043079;28;20503;-74
2021/06/08 02:31:09;;;;;;;56.30;48.17;;;11.90;99.90;;;;;;5038803;28;20495;-74
2021/06/08 02:33:38;;;;;;;67.73;48.20;;;11.90;99.90;;;;;;5035051;28;20467;-76
2021/06/08 02:36:05;;;;;;;52.87;45.47;;;11.90;99.90;;;;;;5037562;28;20510;-74
2021/06/08 02:38:34;;;;;;;50.47;43.77;;;11.90;99.90;;;;;;5038019;28;20464;-75
2021/06/08 02:41:02;;;;;;;59.50;49.90;;;11.80;99.90;;;;;;5035507;28;20455;-78
2021/06/08 02:43:32;;;;;;;63.10;49.90;;;11.80;99.90;;;;;;5034391;28;20849;-79
2021/06/08 02:45:59;;;;;;;56.23;46.40;;;11.70;99.90;;;;;;5043424;28;21166;-74
2021/06/08 02:48:27;;;;;;;53.57;47.17;;;11.70;99.90;;;;;;5035366;28;20488;-74
2021/06/08 02:50:54;;;;;;;56.30;46.73;;;11.60;99.90;;;;;;5035221;28;20466;-74
2021/06/08 02:53:22;;;;;;;61.50;48.90;;;11.60;99.90;;;;;;5039152;28;20460;-75
2021/06/08 02:55:50;;;;;;;65.03;51.20;;;11.60;99.90;;;;;;5034380;28;20468;-74
2021/06/08 02:58:17;;;;;;;68.00;51.90;;;11.70;99.90;;;;;;5034326;28;20487;-77
2021/06/08 03:00:45;;;;;;;70.37;52.87;;;11.70;99.90;;;;;;5029364;28;20484;-76
2021/06/08 03:03:16;;;;;;;74.10;53.70;;;11.70;99.90;;;;;;5037925;28;20457;-74
2021/06/08 03:05:48;;;;;;;74.33;51.17;;;11.70;99.90;;;;;;5041629;28;20472;-79
2021/06/08 03:08:19;;;;;;;69.80;49.70;;;11.70;99.90;;;;;;5037635;28;20594;-74
2021/06/08 03:10:48;;;;;;;61.27;43.93;;;11.70;99.90;;;;;;5037001;28;20465;-74
2021/06/08 03:13:16;;;;;;;54.50;45.10;;;11.50;99.90;;;;;;5035603;28;20456;-75
2021/06/08 03:15:48;;;;;;;59.53;46.03;;;11.40;99.90;;;;;;5028834;28;20990;-74
2021/06/08 03:18:18;;;;;;;66.67;49.90;;;11.20;99.90;;;;;;5037023;28;20463;-74
2021/06/08 03:20:48;;;;;;;65.70;49.07;;;11.30;99.90;;;;;;5037598;28;20516;-74
2021/06/08 03:23:19;;;;;;;67.90;50.27;;;11.40;99.90;;;;;;5033432;28;20555;-75
2021/06/08 03:25:47;;;;;;;70.07;52.10;;;11.40;99.90;;;;;;5038287;28;20568;-75
2021/06/08 03:28:17;;;;;;;61.70;45.97;;;11.40;99.90;;;;;;5035456;28;20488;-76
2021/06/08 03:30:44;;;;;;;61.10;48.43;;;11.30;99.90;;;;;;5032590;28;20471;-74
2021/06/08 03:33:13;;;;;;;61.00;49.93;;;11.30;99.90;;;;;;5043125;28;20853;-74
2021/06/08 03:35:40;;;;;;;64.00;50.70;;;11.30;99.90;;;;;;5037941;28;20492;-74
2021/06/08 03:38:08;;;;;;;60.67;46.50;;;11.30;99.90;;;;;;5035025;28;20460;-75
2021/06/08 03:40:35;;;;;;;51.57;44.57;;;11.30;99.90;;;;;;5034112;28;20460;-74
2021/06/08 03:43:02;;;;;;;50.63;40.57;;;11.20;99.90;;;;;;5038220;28;20974;-77
2021/06/08 03:45:29;;;;;;;55.40;43.27;;;11.10;99.90;;;;;;5038898;28;20491;-74
2021/06/08 03:47:57;;;;;;;55.50;45.40;;;11.10;99.90;;;;;;5035614;28;20498;-73
2021/06/08 03:50:27;;;;;;;59.63;46.60;;;11.10;99.90;;;;;;5034533;28;20495;-74
2021/06/08 03:52:55;;;;;;;59.13;44.73;;;11.10;99.90;;;;;;5038480;28;20464;-73
2021/06/08 03:55:24;;;;;;;60.30;48.87;;;11.10;99.90;;;;;;5031057;28;20501;-75
2021/06/08 03:57:54;;;;;;;74.60;54.20;;;11.20;99.90;;;;;;5031463;28;20485;-74
2021/06/08 04:00:23;;;;;;;73.27;54.63;;;11.40;99.90;;;;;;5040925;28;20488;-73
2021/06/08 04:02:50;;;;;;;75.33;52.67;;;11.50;99.90;;;;;;5035287;28;20460;-77
2021/06/08 04:05:17;;;;;;;74.57;54.73;;;11.60;99.90;;;;;;5031405;28;20990;-75
2021/06/08 04:07:46;;;;;;;68.60;51.40;;;11.70;99.90;;;;;;5032481;28;20509;-75
2021/06/08 04:10:17;;;;;;;67.90;53.30;;;11.80;99.90;;;;;;5035167;28;20455;-74
2021/06/08 04:12:43;;;;;;;71.37;54.37;;;11.90;99.90;;;;;;5032339;28;20497;-73
2021/06/08 04:15:11;;;;;;;67.53;51.70;;;11.90;99.90;;;;;;5035616;28;20478;-73
2021/06/08 04:17:37;;;;;;;58.63;49.17;;;11.90;99.90;;;;;;5040540;28;20466;-73
2021/06/08 04:20:06;;;;;;;64.83;51.90;;;11.80;99.90;;;;;;5037845;28;20468;-74
2021/06/08 04:22:33;;;;;;;73.37;52.80;;;11.90;99.90;;;;;;5037639;28;21178;-75
2021/06/08 04:25:01;;;;;;;69.33;49.10;;;12.00;99.90;;;;;;5042827;28;20470;-74
2021/06/08 04:27:30;;;;;;;65.93;53.40;;;12.00;99.90;;;;;;5042508;28;20490;-74
2021/06/08 04:29:57;;;;;;;71.50;53.70;;;11.90;99.90;;;;;;5039261;28;20529;-73
2021/06/08 04:32:24;;;;;;;66.43;53.87;;;12.10;99.90;;;;;;5042269;28;20481;-73
2021/06/08 04:34:51;;;;;;;64.53;52.33;;;12.10;99.90;;;;;;5038464;28;20493;-73
2021/06/08 04:37:19;;;;;;;65.80;52.80;;;12.20;99.90;;;;;;5041721;28;20460;-74
2021/06/08 04:39:46;;;;;;;61.50;52.13;;;12.20;99.90;;;;;;5036037;28;20456;-73
2021/06/08 04:42:16;;;;;;;58.93;50.30;;;12.30;99.90;;;;;;5033652;28;20468;-73
2021/06/08 04:44:43;;;;;;;62.30;50.80;;;12.30;99.90;;;;;;5040320;28;20844;-74
2021/06/08 04:47:10;;;;;;;59.00;48.83;;;12.30;99.90;;;;;;5039269;28;20980;-73
2021/06/08 04:49:36;;;;;;;53.70;48.13;;;12.30;99.90;;;;;;5038994;28;20493;-73
2021/06/08 04:52:05;;;;;;;56.97;48.17;;;12.30;99.90;;;;;;5040334;28;20491;-73
2021/06/08 04:54:32;;;;;;;58.13;51.00;;;12.40;99.90;;;;;;5041763;28;20471;-73
2021/06/08 04:56:58;;;;;;;64.63;50.70;;;12.50;99.90;;;;;;5039856;28;21004;-74
2021/06/08 04:59:34;;;;;;;59.60;50.37;;;12.60;99.90;;;;;;5037327;28;20910;-73
2021/06/08 05:02:06;;;;;;;56.93;48.90;;;12.70;99.90;;;;;;5041792;28;20973;-73
2021/06/08 05:04:37;;;;;;;51.37;46.07;;;12.80;99.90;;;;;;5041253;28;21013;-73
2021/06/08 05:07:07;;;;;;;53.60;47.77;;;12.80;99.90;;;;;;5034723;28;20465;-73
2021/06/08 05:09:37;;;;;;;56.27;50.00;;;12.90;99.90;;;;;;5039837;28;20574;-73
2021/06/08 05:12:08;;;;;;;59.17;51.13;;;13.00;99.90;;;;;;5035952;28;20547;-72
2021/06/08 05:14:36;;;;;;;55.63;49.63;;;13.20;99.90;;;;;;5037702;28;20526;-73
2021/06/08 05:17:04;;;;;;;56.00;47.23;;;13.30;99.90;;;;;;5040069;28;20482;-73
2021/06/08 05:19:32;;;;;;;56.00;49.13;;;13.40;99.90;;;;;;5040975;28;20470;-73
2021/06/08 05:21:59;;;;;;;55.57;49.63;;;13.50;99.90;;;;;;5040965;28;21045;-74
2021/06/08 05:24:26;;;;;;;61.40;48.73;;;13.70;99.90;;;;;;5037031;28;20974;-73
2021/06/08 05:26:52;;;;;;;53.10;46.67;;;13.90;99.90;;;;;;5035591;28;20833;-74
2021/06/08 05:29:21;;;;;;;51.87;46.50;;;14.00;99.90;;;;;;5040557;28;21227;-73
2021/06/08 05:31:49;;;;;;;50.00;44.53;;;14.20;99.90;;;;;;5044670;28;20487;-73
2021/06/08 05:34:19;;;;;;;49.20;44.10;;;14.40;99.90;;;;;;5039557;28;20468;-73
2021/06/08 05:36:46;;;;;;;50.20;44.77;;;14.50;99.90;;;;;;5032430;28;20469;-73
2021/06/08 05:39:13;;;;;;;48.87;43.50;;;14.70;99.90;;;;;;5035603;28;20490;-73
2021/06/08 05:41:40;;;;;;;47.63;42.80;;;14.80;99.90;;;;;;5034353;28;20460;-73
2021/06/08 05:44:09;;;;;;;48.33;43.03;;;14.90;99.90;;;;;;5036130;28;20516;-74
2021/06/08 05:46:37;;;;;;;46.17;41.47;;;15.00;99.90;;;;;;5041388;28;20831;-73
2021/06/08 05:49:06;;;;;;;43.97;39.73;;;15.10;99.90;;;;;;5042644;28;20499;-75
2021/06/08 05:51:33;;;;;;;47.93;42.73;;;15.00;99.90;;;;;;5036298;28;20456;-73
2021/06/08 05:54:00;;;;;;;49.50;43.30;;;15.00;99.90;;;;;;5034772;28;20586;-74
2021/06/08 05:56:32;;;;;;;45.20;40.50;;;15.00;99.90;;;;;;5040841;28;20457;-73
2021/06/08 05:58:58;;;;;;;47.03;42.13;;;15.20;99.90;;;;;;5036817;28;20550;-74
2021/06/08 06:01:26;;;;;;;48.23;41.93;;;15.10;99.90;;;;;;5035185;28;21010;-73
2021/06/08 06:03:54;;;;;;;46.20;41.40;;;15.10;99.90;;;;;;5036037;28;20460;-74
2021/06/08 06:06:22;;;;;;;46.23;40.70;;;15.20;99.90;;;;;;5036518;28;20455;-74
2021/06/08 06:08:50;;;;;;;44.40;39.77;;;15.30;99.90;;;;;;5031896;28;20496;-73
2021/06/08 06:11:18;;;;;;;44.80;39.93;;;15.30;99.90;;;;;;5032171;28;20882;-73
2021/06/08 06:13:48;;;;;;;44.40;39.90;;;15.20;99.90;;;;;;5040472;28;20467;-74
2021/06/08 06:16:17;;;;;;;45.60;40.30;;;15.30;99.90;;;;;;5039488;28;20491;-73
2021/06/08 06:18:44;;;;;;;45.13;40.67;;;15.30;99.90;;;;;;5039960;28;20462;-75
2021/06/08 06:21:11;;;;;;;45.00;40.17;;;15.30;99.90;;;;;;5037645;28;20468;-75
2021/06/08 06:23:40;;;;;;;43.07;38.80;;;15.40;99.90;;;;;;5036336;28;21067;-74
2021/06/08 06:26:06;;;;;;;42.57;38.03;;;15.60;99.90;;;;;;5034252;28;20928;-75
2021/06/08 06:28:34;;;;;;;49.83;40.37;;;15.60;99.90;;;;;;5041611;28;20487;-76
2021/06/08 06:31:00;;;;;;;44.77;39.87;;;15.50;99.90;;;;;;5034257;28;21033;-77
2021/06/08 06:33:27;;;;;;;43.50;39.20;;;15.70;99.90;;;;;;5034407;28;20729;-74
2021/06/08 06:35:57;;;;;;;45.63;41.07;;;15.90;99.90;;;;;;5030130;28;20468;-75
2021/06/08 06:38:25;;;;;;;43.80;37.27;;;16.10;99.90;;;;;;5032313;28;20471;-76
2021/06/08 06:40:53;;;;;;;42.70;35.80;;;16.20;99.90;;;;;;5034248;28;20464;-75
2021/06/08 06:43:25;;;;;;;44.10;38.93;;;16.20;99.90;;;;;;5038656;28;20472;-74
2021/06/08 06:45:52;;;;;;;41.77;37.50;;;16.30;99.90;;;;;;5031661;28;21030;-74
2021/06/08 06:48:19;;;;;;;41.87;37.47;;;16.50;99.90;;;;;;5033172;28;20475;-74
2021/06/08 06:50:47;;;;;;;41.57;37.17;;;16.70;99.90;;;;;;5032348;28;20484;-73
2021/06/08 06:53:17;;;;;;;39.87;35.87;;;16.80;99.90;;;;;;5038358;28;20543;-74
2021/06/08 06:55:47;;;;;;;38.00;34.20;;;16.80;99.90;;;;;;5036249;28;20518;-74
2021/06/08 06:58:17;;;;;;;39.83;35.90;;;16.80;99.90;;;;;;5032049;28;20460;-74
2021/06/08 07:00:43;;;;;;;39.93;35.90;;;16.90;99.90;;;;;;5033510;28;20897;-74
2021/06/08 07:03:11;;;;;;;40.83;37.07;;;16.60;99.90;;;;;;5033540;28;20543;-74
2021/06/08 07:05:38;;;;;;;43.87;37.30;;;16.80;99.90;;;;;;5037047;28;20888;-73
2021/06/08 07:08:06;;;;;;;38.60;34.90;;;16.80;99.90;;;;;;5030922;28;20464;-74
2021/06/08 07:10:32;;;;;;;39.97;35.70;;;17.00;99.90;;;;;;5036161;28;20496;-73
2021/06/08 07:13:03;;;;;;;40.67;36.73;;;17.10;99.90;;;;;;5035976;28;20474;-74
2021/06/08 07:15:31;;;;;;;39.40;35.70;;;17.30;99.90;;;;;;5033151;28;20460;-74
2021/06/08 07:17:58;;;;;;;36.67;33.37;;;17.50;99.90;;;;;;5034121;28;20463;-74
2021/06/08 07:20:25;;;;;;;38.50;34.90;;;17.60;99.90;;;;;;5028143;28;20472;-74
2021/06/08 07:22:53;;;;;;;38.47;34.27;;;17.60;99.90;;;;;;5035847;28;20961;-75
2021/06/08 07:25:20;;;;;;;38.37;34.60;;;17.80;99.90;;;;;;5039164;28;20506;-75
2021/06/08 07:27:47;;;;;;;38.40;35.10;;;18.00;99.90;;;;;;5036349;28;21258;-77
2021/06/08 07:30:16;;;;;;;37.27;33.37;;;18.20;99.90;;;;;;5036004;28;20488;-74
2021/06/08 07:32:54;;;;;;;36.47;33.10;;;18.30;99.90;;;;;;5035720;28;20729;-76
2021/06/08 07:35:28;;;;;;;38.17;34.40;;;18.50;99.90;;;;;;5035832;28;20471;-75
2021/06/08 07:37:57;;;;;;;39.40;34.30;;;18.30;99.90;;;;;;5035079;28;20556;-76
2021/06/08 07:40:28;;;;;;;38.27;34.63;;;18.40;99.90;;;;;;5030423;28;20525;-74
2021/06/08 07:42:57;;;;;;;35.63;32.43;;;18.50;99.90;;;;;;5038309;28;20559;-77
2021/06/08 07:45:30;;;;;;;38.50;34.80;;;18.70;99.90;;;;;;5031164;28;20487;-78
2021/06/08 07:48:00;;;;;;;36.07;32.77;;;18.90;99.90;;;;;;5034960;28;20464;-77
2021/06/08 07:50:30;;;;;;;35.97;32.70;;;19.10;99.90;;;;;;5030394;28;20460;-75
2021/06/08 07:52:58;;;;;;;37.30;33.83;;;19.30;99.90;;;;;;5036002;28;20459;-76
2021/06/08 07:55:24;;;;;;;36.80;33.60;;;19.50;99.90;;;;;;5035698;28;20569;-75
2021/06/08 07:57:51;;;;;;;34.30;31.30;;;19.70;99.90;;;;;;5036485;28;20676;-75
2021/06/08 08:00:18;;;;;;;33.53;30.40;;;19.90;99.90;;;;;;5037498;28;20483;-75
2021/06/08 08:02:46;;;;;;;33.27;30.33;;;20.20;99.90;;;;;;5032423;28;21093;-78
2021/06/08 08:05:16;;;;;;;29.83;27.30;;;20.70;99.90;;;;;;5036578;28;20510;-75
2021/06/08 08:07:44;;;;;;;33.23;29.90;;;21.80;99.90;;;;;;5037611;28;20504;-75
2021/06/08 08:10:11;;;;;;;29.50;27.00;;;22.70;99.90;;;;;;5025743;28;20531;-75
2021/06/08 08:12:41;;;;;;;27.93;25.80;;;23.70;99.90;;;;;;5032727;28;20869;-76
2021/06/08 08:15:09;;;;;;;30.20;27.47;;;24.10;99.90;;;;;;5036247;28;20848;-75
2021/06/08 08:17:37;;;;;;;25.60;23.20;;;24.50;99.90;;;;;;5030083;28;20468;-75
2021/06/08 08:20:09;;;;;;;24.43;22.30;;;24.80;99.90;;;;;;5031094;28;20483;-78
2021/06/08 08:22:37;;;;;;;23.10;21.40;;;25.00;99.90;;;;;;5037759;28;20482;-76
2021/06/08 08:25:04;;;;;;;24.50;22.70;;;25.30;99.90;;;;;;5035839;28;20459;-75
2021/06/08 08:27:31;;;;;;;24.87;23.07;;;25.70;99.90;;;;;;5039199;28;20472;-75
2021/06/08 08:29:57;;;;;;;27.23;25.07;;;25.50;99.90;;;;;;5041331;28;20578;-78
2021/06/08 08:32:24;;;;;;;24.30;22.27;;;25.90;99.90;;;;;;5037398;28;20997;-75
2021/06/08 08:34:50;;;;;;;25.97;23.57;;;26.30;99.90;;;;;;5034319;28;20468;-77
2021/06/08 08:37:17;;;;;;;25.83;23.83;;;25.80;99.90;;;;;;5035059;28;20743;-75
2021/06/08 08:39:46;;;;;;;25.80;23.90;;;24.90;99.90;;;;;;5036016;28;20549;-75
2021/06/08 08:42:13;;;;;;;24.57;22.67;;;24.10;99.90;;;;;;5036337;28;20875;-76
2021/06/08 08:44:40;;;;;;;24.67;22.77;;;24.00;99.90;;;;;;5033400;28;20875;-76
2021/06/08 08:47:06;;;;;;;24.03;22.17;;;24.30;99.90;;;;;;5032097;28;20472;-75
2021/06/08 08:49:33;;;;;;;22.83;21.33;;;25.30;99.90;;;;;;5031046;28;20483;-77
2021/06/08 08:52:03;;;;;;;23.30;21.60;;;25.60;99.90;;;;;;5036571;28;20475;-76
2021/06/08 08:54:30;;;;;;;23.77;21.83;;;25.80;99.90;;;;;;5039418;28;20529;-77
2021/06/08 08:56:58;;;;;;;22.93;21.33;;;26.70;99.90;;;;;;5029442;28;20464;-74
2021/06/08 08:59:25;;;;;;;22.80;21.20;;;25.90;99.90;;;;;;5033343;28;20476;-76
2021/06/08 09:01:51;;;;;;;22.80;21.17;;;25.60;99.90;;;;;;5038262;28;20528;-76
2021/06/08 09:04:19;;;;;;;24.27;22.57;;;26.10;99.90;;;;;;5033642;28;20476;-76
2021/06/08 09:06:46;;;;;;;23.23;21.53;;;26.70;99.90;;;;;;5031845;28;20986;-76
2021/06/08 09:09:12;;;;;;;23.60;21.70;;;27.10;99.70;;;;;;5039541;28;20480;-75
2021/06/08 09:11:41;;;;;;;22.17;20.67;;;26.50;99.90;;;;;;5040039;28;20470;-75
2021/06/08 09:14:10;;;;;;;24.33;22.33;;;26.90;99.90;;;;;;5034149;28;20539;-77
2021/06/08 09:16:37;;;;;;;22.30;20.77;;;27.90;98.90;;;;;;5037742;28;20464;-76
2021/06/08 09:19:04;;;;;;;20.83;19.47;;;27.60;99.80;;;;;;5035304;28;21043;-75
2021/06/08 09:21:33;;;;;;;23.47;21.70;;;27.80;98.00;;;;;;5036074;28;20557;-75
2021/06/08 09:24:15;;;;;;;19.13;17.80;;;28.60;97.80;;;;;;5040076;28;20842;-78
2021/06/08 09:26:50;;;;;;;20.37;19.07;;;29.00;93.50;;;;;;5033874;28;20461;-76
2021/06/08 09:29:37;;;;;;;20.27;19.17;;;29.20;93.30;;;;;;5035742;28;20516;-75
2021/06/08 09:32:23;;;;;;;23.70;22.17;;;29.10;94.10;;;;;;5043060;28;20464;-77
2021/06/08 09:34:52;;;;;;;23.33;21.83;;;29.10;92.80;;;;;;5038372;28;21028;-75
2021/06/08 09:37:37;;;;;;;22.63;21.13;;;29.10;93.30;;;;;;5035463;28;20987;-78
2021/06/08 09:40:18;;;;;;;22.73;21.13;;;30.20;92.00;;;;;;5039897;28;20838;-76
2021/06/08 09:42:45;;;;;;;22.83;21.23;;;30.40;90.90;;;;;;5042785;28;20753;-76
2021/06/08 09:45:15;;;;;;;22.27;20.87;;;29.60;90.90;;;;;;5036423;28;20472;-78
2021/06/08 09:47:42;;;;;;;22.10;20.40;;;29.30;89.40;;;;;;5035578;28;20486;-77
2021/06/08 09:50:28;;;;;;;21.60;20.10;;;29.50;90.20;;;;;;5038867;28;20523;-77
2021/06/08 09:53:15;;;;;;;20.13;18.73;;;30.00;90.10;;;;;;5041414;28;20547;-75
2021/06/08 09:55:52;;;;;;;20.37;19.07;;;29.80;90.60;;;;;;5034745;28;20463;-76
2021/06/08 09:58:19;;;;;;;21.00;19.50;;;28.80;91.00;;;;;;5033460;28;20474;-76
2021/06/08 10:01:05;;;;;;;20.83;19.53;;;28.20;91.70;;;;;;5041991;28;20482;-78
2021/06/08 10:03:36;;;;;;;19.90;18.50;;;28.60;91.60;;;;;;5038731;28;20468;-78
2021/06/08 10:06:08;;;;;;;20.40;19.03;;;29.30;91.00;;;;;;5038510;28;20456;-77
2021/06/08 10:08:36;;;;;;;20.80;19.60;;;28.90;89.60;;;;;;5036233;28;20492;-77
2021/06/08 10:11:02;;;;;;;19.73;18.43;;;29.20;87.30;;;;;;5034773;28;20519;-75
2021/06/08 10:13:29;;;;;;;20.90;19.40;;;28.90;88.40;;;;;;5035675;28;20460;-76
2021/06/08 10:15:59;;;;;;;20.20;18.83;;;28.50;88.10;;;;;;5039468;28;20464;-78
2021/06/08 10:18:26;;;;;;;19.83;18.63;;;29.30;89.20;;;;;;5032548;28;20759;-76
2021/06/08 10:20:54;;;;;;;20.70;19.37;;;29.40;90.50;;;;;;5037079;28;20968;-76
2021/06/08 10:23:24;;;;;;;22.00;20.70;;;28.80;89.00;;;;;;5033374;28;20483;-74
2021/06/08 10:25:52;;;;;;;22.43;20.83;;;28.40;88.40;;;;;;5034353;28;20464;-74
2021/06/08 10:28:20;;;;;;;22.73;20.90;;;29.20;85.90;;;;;;5035059;28;20465;-75
2021/06/08 10:30:48;;;;;;;20.93;18.90;;;29.70;84.30;;;;;;5036660;28;20472;-74
2021/06/08 10:33:17;;;;;;;20.67;19.47;;;30.80;85.30;;;;;;5040815;28;20461;-77
2021/06/08 10:35:44;;;;;;;22.30;20.90;;;31.90;82.30;;;;;;5034107;28;20461;-76
2021/06/08 10:38:13;;;;;;;19.57;18.37;;;32.00;79.80;;;;;;5036045;28;20463;-75
2021/06/08 10:40:41;;;;;;;19.50;18.30;;;31.10;78.10;;;;;;5035534;28;20464;-75
2021/06/08 10:43:15;;;;;;;19.23;18.13;;;31.80;77.80;;;;;;5039347;28;20514;-74
2021/06/08 10:45:41;;;;;;;19.23;18.17;;;32.40;79.60;;;;;;5033520;28;20565;-75
2021/06/08 10:48:14;;;;;;;19.47;18.17;;;32.60;74.90;;;;;;5033683;28;20461;-75
2021/06/08 10:50:46;;;;;;;20.73;19.23;;;32.40;75.20;;;;;;5036285;28;20547;-74
2021/06/08 10:53:28;;;;;;;19.70;18.50;;;31.50;74.60;;;;;;5037852;28;20966;-74
2021/06/08 10:55:55;;;;;;;22.03;20.30;;;30.40;75.20;;;;;;5037374;28;20518;-75
2021/06/08 10:58:43;;;;;;;21.33;19.90;;;29.90;75.50;;;;;;5036543;28;20712;-74
2021/06/08 11:01:43;;;;;;;20.90;19.60;;;29.40;76.90;;;;;;5036288;28;20500;-74
2021/06/08 11:04:12;;;;;;;20.43;19.20;;;29.10;80.70;;;;;;5032770;28;20518;-74
2021/06/08 11:06:50;;;;;;;20.13;18.70;;;29.60;78.60;;;;;;5032225;28;20982;-74
2021/06/08 11:09:18;;;;;;;20.83;19.47;;;30.40;78.20;;;;;;5037474;28;20511;-74
2021/06/08 11:11:48;;;;;;;20.17;18.87;;;30.60;74.40;;;;;;5035364;28;20833;-74
2021/06/08 11:14:54;;;;;;;18.73;17.60;;;31.10;74.80;;;;;;5036274;28;20463;-74
2021/06/08 11:17:29;;;;;;;19.93;18.63;;;30.70;77.90;;;;;;5033998;28;21448;-74
2021/06/08 11:19:58;;;;;;;21.03;19.67;;;30.20;80.50;;;;;;5035074;28;20468;-74
2021/06/08 11:22:57;;;;;;;22.17;20.87;;;30.50;75.00;;;;;;5039800;28;20467;-74
2021/06/08 11:25:53;;;;;;;21.57;20.27;;;30.00;77.60;;;;;;5035426;28;20464;-74
2021/06/08 11:28:19;;;;;;;22.20;20.70;;;30.20;76.80;;;;;;5036623;28;20970;-74
2021/06/08 11:30:57;;;;;;;21.00;19.60;;;30.70;74.80;;;;;;5037671;28;20503;-74
2021/06/08 11:33:29;;;;;;;22.77;20.53;;;31.10;74.50;;;;;;5032976;28;20460;-74
2021/06/08 11:35:55;;;;;;;19.93;18.83;;;31.60;71.40;;;;;;5040726;28;20529;-75
2021/06/08 11:38:34;;;;;;;22.60;21.10;;;32.20;74.20;;;;;;5038599;28;20461;-74
2021/06/08 11:41:03;;;;;;;22.17;20.57;;;33.20;71.40;;;;;;5034655;28;20470;-74
2021/06/08 11:43:50;;;;;;;20.97;19.73;;;34.10;68.50;;;;;;5036444;28;20490;-74
2021/06/08 11:46:28;;;;;;;19.20;18.10;;;34.30;65.00;;;;;;5034473;28;20464;-74
2021/06/08 11:49:06;;;;;;;20.20;19.00;;;33.30;65.20;;;;;;5037301;28;20574;-74
2021/06/08 11:51:35;;;;;;;21.60;20.20;;;33.90;65.20;;;;;;5038329;28;20491;-74
2021/06/08 11:54:05;;;;;;;24.00;22.60;;;34.60;63.30;;;;;;5038495;28;20460;-74
2021/06/08 11:56:50;;;;;;;22.67;20.97;;;34.60;60.40;;;;;;5033410;28;20475;-74
2021/06/08 11:59:18;;;;;;;22.70;21.30;;;34.40;59.90;;;;;;5030639;28;20487;-75
2021/06/08 12:01:48;;;;;;;20.73;19.40;;;34.70;60.50;;;;;;5033753;28;20479;-76
2021/06/08 12:04:15;;;;;;;22.47;21.07;;;34.80;61.50;;;;;;5035627;28;20548;-74
2021/06/08 12:07:14;;;;;;;26.33;24.77;;;35.20;60.70;;;;;;5035963;28;20474;-73
2021/06/08 12:09:46;;;;;;;24.70;23.10;;;34.90;61.40;;;;;;4956240;28;20480;-74
2021/06/08 12:12:14;;;;;;;23.80;22.17;;;34.50;60.00;;;;;;4956802;28;20522;-75
2021/06/08 12:14:49;;;;;;;25.47;23.47;;;34.30;59.20;;;;;;4993574;28;20486;-74
2021/06/08 12:17:16;;;;;;;25.00;23.43;;;34.50;59.20;;;;;;5039731;28;20497;-75
2021/06/08 12:19:43;;;;;;;25.90;24.00;;;34.10;58.60;;;;;;5035139;28;21209;-73
2021/06/08 12:22:23;;;;;;;25.30;23.40;;;31.80;60.50;;;;;;5036949;28;20478;-73
2021/06/08 12:24:59;;;;;;;24.40;22.53;;;31.80;63.30;;;;;;5035387;28;20467;-74
2021/06/08 12:27:38;;;;;;;23.60;22.07;;;33.30;61.90;;;;;;5035993;28;20963;-74
2021/06/08 12:30:07;;;;;;;23.00;21.50;;;33.70;61.70;;;;;;5037591;28;20496;-74
2021/06/08 12:32:34;;;;;;;23.80;22.37;;;34.10;60.70;;;;;;5040886;28;20535;-76
2021/06/08 12:35:01;;;;;;;26.20;24.40;;;34.00;61.00;;;;;;5035512;28;20457;-72
2021/06/08 12:37:28;;;;;;;29.10;26.70;;;33.60;61.50;;;;;;5037160;28;20463;-72
2021/06/08 12:39:58;;;;;;;28.80;26.80;;;33.70;60.00;;;;;;5031773;28;20468;-72